MMZC

Details ICAO MMZC (ZCL)
Name GENERAL LEOBARDO C RUIZ INTL
Region Mexico
Timezone America/Mexico_City (UTC-6.0)
Plans Departing 5
Arriving 6
Stats Elevation 7,141 ft / 2,177 m (AMSL)
Location 22.897924° -102.684945°
Runways 2
Magnetic Variation 6.072° E
Sunrise 2017-12-16 13:25:53 UTC / 2017-12-16 07:25:53 Local
Sunset 2017-12-17 00:09:54 UTC / 2017-12-16 18:09:54 Local
Advertisement - Login to hide

Runways

ID Width Length Bearing (true) Bearing (mag) Surface Threshold Offset Overrun Length
02 148 ft / 45 m 9,876 ft / 3,010 m 27.90° 21.83° Asphalt 0 ft / 0 m 210 ft / 64 m
08 98 ft / 30 m 3,260 ft / 994 m 87.86° 81.79° Asphalt 0 ft / 0 m 0 ft / 0 m
20 148 ft / 45 m 9,876 ft / 3,010 m 207.91° 201.84° Asphalt 0 ft / 0 m 198 ft / 60 m
26 98 ft / 30 m 3,260 ft / 994 m 267.86° 261.79° Asphalt 0 ft / 0 m 0 ft / 0 m

Map

Weather


0- 5 10 15 20 25 30 35+ Temperature / ° C

Clouds and Precipitation
Forecast for 2017-12-16 12:00 UTC. Updated 13 minutes ago

Ground ~20,000 ft ~40,000 ft Winds

METAR

Not found

TAF

TAF AMD MMZC 160034Z 1601/1706 02010KT 5SM -RA OVC020 TX18/1621Z TN05/1610Z FM160300 16010KT 6SM HZ BKN030 BKN100 BKN300 TEMPO 1610/1614 5SM RA FM161600 20010G20KT P6SM SCT030 BKN100 BECMG 1702/1703 20020G30KT

Frequencies

Tower 118.00 MHz ZACATECAS TWR
Warning: Do not use this data for real-world aviation or navigation. No guarantee of current accuracy is given.